createdAt,value
2022-09-12T00:00:17.133Z,96421.09
2022-09-12T00:02:44.647Z,96415.75
2022-09-12T00:05:12.110Z,96413.91
2022-09-12T00:07:39.554Z,96418.25
2022-09-12T00:10:07.599Z,96413.47
2022-09-12T00:12:35.115Z,96411.81
2022-09-12T00:15:02.674Z,96408.88
2022-09-12T00:17:31.520Z,96407.22
2022-09-12T00:19:59.054Z,96401.88
2022-09-12T00:22:26.528Z,96401.13
2022-09-12T00:24:54.000Z,96400.31
2022-09-12T00:27:21.486Z,96400.75
2022-09-12T00:29:48.951Z,96403.16
2022-09-12T00:32:16.447Z,96398.03
2022-09-12T00:34:45.400Z,96407.22
2022-09-12T00:37:13.039Z,96398.56
2022-09-12T00:39:40.653Z,96392.75
2022-09-12T00:42:10.143Z,96391.84
2022-09-12T00:44:47.949Z,96390.44
2022-09-12T00:47:19.046Z,96394.75
2022-09-12T00:49:52.213Z,96387.50
2022-09-12T00:52:25.383Z,96385.63
2022-09-12T00:54:57.536Z,96380.66
2022-09-12T00:57:29.485Z,96383.69
2022-09-12T01:00:00.320Z,96379.00
2022-09-12T01:02:28.956Z,96381.69
2022-09-12T01:04:58.402Z,96378.38
2022-09-12T01:07:25.965Z,96372.19
2022-09-12T01:09:53.742Z,96368.69
2022-09-12T01:12:21.654Z,96373.38
2022-09-12T01:14:49.121Z,96366.41
2022-09-12T01:17:16.988Z,96367.75
2022-09-12T01:20:21.859Z,96372.19
2022-09-12T01:23:11.737Z,96372.78
2022-09-12T01:25:51.585Z,96376.25
2022-09-12T01:28:47.385Z,96374.13
2022-09-12T01:31:21.972Z,96370.34
2022-09-12T01:34:03.477Z,96366.78
2022-09-12T01:36:38.113Z,96369.50
2022-09-12T01:39:09.627Z,96372.13
2022-09-12T01:41:49.945Z,96368.91
2022-09-12T01:44:27.372Z,96357.13
2022-09-12T01:47:01.872Z,96360.50
2022-09-12T01:49:37.311Z,96358.31
2022-09-12T01:52:13.912Z,96360.81
2022-09-12T01:54:46.405Z,96353.22
2022-09-12T01:57:17.942Z,96361.03
2022-09-12T01:59:48.922Z,96355.34
2022-09-12T02:02:23.812Z,96350.22
2022-09-12T02:04:59.190Z,96352.63
2022-09-12T02:07:35.710Z,96346.66
2022-09-12T02:10:08.576Z,96349.44
2022-09-12T02:12:43.588Z,96346.94
2022-09-12T02:15:13.502Z,96342.63
2022-09-12T02:17:45.319Z,96347.59
2022-09-12T02:20:37.195Z,96345.94
2022-09-12T02:23:09.687Z,96342.28
2022-09-12T02:25:40.900Z,96342.28
2022-09-12T02:28:13.439Z,96336.94
2022-09-12T02:30:44.630Z,96339.31
2022-09-12T02:33:24.027Z,96328.41
2022-09-12T02:35:58.184Z,96327.88
2022-09-12T02:38:32.720Z,96331.38
2022-09-12T02:41:00.275Z,96326.16
2022-09-12T02:43:27.832Z,96332.28
2022-09-12T02:45:55.340Z,96323.31
2022-09-12T02:48:28.468Z,96317.44
2022-09-12T02:50:56.239Z,96330.28
2022-09-12T02:53:24.340Z,96329.47
2022-09-12T02:55:52.994Z,96325.31
2022-09-12T02:58:24.076Z,96324.75
2022-09-12T03:01:01.129Z,96332.28
2022-09-12T03:03:45.895Z,96321.50
2022-09-12T03:06:19.207Z,96317.59
2022-09-12T03:09:01.622Z,96325.72
2022-09-12T03:11:44.212Z,96316.31
2022-09-12T03:14:23.340Z,96326.97
2022-09-12T03:16:58.314Z,96322.47
2022-09-12T03:19:36.190Z,96321.31
2022-09-12T03:22:11.397Z,96326.84
2022-09-12T03:24:45.972Z,96320.44
2022-09-12T03:27:18.023Z,96331.31
2022-09-12T03:29:48.118Z,96329.97
2022-09-12T03:32:16.552Z,96327.66
2022-09-12T03:34:45.364Z,96328.31
2022-09-12T03:37:12.843Z,96326.16
2022-09-12T03:39:40.394Z,96317.16
2022-09-12T03:42:07.997Z,96321.31
2022-09-12T03:44:35.473Z,96316.00
2022-09-12T03:47:02.924Z,96322.84
2022-09-12T03:49:30.389Z,96326.78
2022-09-12T03:51:59.199Z,96325.91
2022-09-12T03:54:26.654Z,96319.19
2022-09-12T03:56:54.113Z,96322.84
2022-09-12T03:59:21.608Z,96329.03
2022-09-12T04:01:49.087Z,96319.53
2022-09-12T04:04:16.531Z,96320.00
2022-09-12T04:06:44.074Z,96323.03
2022-09-12T04:09:12.909Z,96320.06
2022-09-12T04:11:40.409Z,96321.59
2022-09-12T04:14:07.951Z,96323.75
2022-09-12T04:16:35.457Z,96324.81
2022-09-12T04:19:03.008Z,96321.50
2022-09-12T04:21:30.912Z,96321.81
2022-09-12T04:23:58.411Z,96326.44
2022-09-12T04:26:29.693Z,96325.13
2022-09-12T04:28:57.575Z,96321.13
2022-09-12T04:31:26.115Z,96329.44
2022-09-12T04:33:57.849Z,96329.28
2022-09-12T04:36:26.222Z,96324.34
2022-09-12T04:38:53.792Z,96319.25
2022-09-12T04:41:22.998Z,96330.72
2022-09-12T04:43:55.133Z,96324.16
2022-09-12T04:46:22.932Z,96324.16
2022-09-12T04:48:54.610Z,96320.66
2022-09-12T04:51:27.634Z,96319.25
2022-09-12T04:53:56.729Z,96334.63
2022-09-12T04:56:25.205Z,96324.94
2022-09-12T04:58:54.024Z,96317.84
2022-09-12T05:01:23.165Z,96325.19
2022-09-12T05:03:51.745Z,96323.19
2022-09-12T05:06:21.988Z,96322.59
2022-09-12T05:08:49.877Z,96327.91
2022-09-12T05:11:24.087Z,96327.31
2022-09-12T05:13:54.160Z,96332.16
2022-09-12T05:16:22.758Z,96335.38
2022-09-12T05:18:50.417Z,96334.06
2022-09-12T05:21:19.895Z,96334.47
2022-09-12T05:23:48.634Z,96337.94
2022-09-12T05:26:17.266Z,96355.75
2022-09-12T05:28:44.726Z,96341.28
2022-09-12T05:31:15.648Z,96343.31
2022-09-12T05:33:45.679Z,96349.00
2022-09-12T05:36:15.459Z,96354.03
2022-09-12T05:38:42.949Z,96348.72
2022-09-12T05:41:16.650Z,96352.50
2022-09-12T05:43:46.533Z,96351.22
2022-09-12T05:46:17.240Z,96349.06
2022-09-12T05:48:46.436Z,96352.09
2022-09-12T05:51:17.454Z,96355.22
2022-09-12T05:53:45.158Z,96357.09
2022-09-12T05:56:14.429Z,96357.88
2022-09-12T05:58:45.189Z,96358.41
2022-09-12T06:01:15.947Z,96362.56
2022-09-12T06:03:46.205Z,96361.75
2022-09-12T06:06:14.836Z,96370.88
2022-09-12T06:08:44.199Z,96367.75
2022-09-12T06:11:13.306Z,96357.69
2022-09-12T06:13:42.116Z,96356.06
2022-09-12T06:16:11.762Z,96356.34
2022-09-12T06:18:41.535Z,96355.94
2022-09-12T06:21:11.326Z,96360.81
2022-09-12T06:23:40.064Z,96362.66
2022-09-12T06:26:11.004Z,96358.59
2022-09-12T06:28:40.601Z,96359.16
2022-09-12T06:31:10.925Z,96348.97
2022-09-12T06:33:41.902Z,96358.22
2022-09-12T06:36:12.541Z,96360.31
2022-09-12T06:38:40.425Z,96362.09
2022-09-12T06:41:09.112Z,96365.47
2022-09-12T06:43:37.214Z,96359.00
2022-09-12T06:46:05.388Z,96355.09
2022-09-12T06:48:33.190Z,96351.50
2022-09-12T06:51:04.776Z,96356.41
2022-09-12T06:53:34.226Z,96356.78
2022-09-12T06:56:03.335Z,96360.56
2022-09-12T06:58:31.410Z,96359.09
2022-09-12T07:01:03.197Z,96360.31
2022-09-12T07:03:30.736Z,96357.00
2022-09-12T07:05:58.708Z,96352.97
2022-09-12T07:08:31.710Z,96363.22
2022-09-12T07:11:01.169Z,96359.94
2022-09-12T07:13:28.710Z,96361.78
2022-09-12T07:15:56.287Z,96355.63
2022-09-12T07:18:24.154Z,96364.34
2022-09-12T07:20:51.598Z,96365.50
2022-09-12T07:23:19.066Z,96364.31
2022-09-12T07:25:57.036Z,96351.16
2022-09-12T07:28:25.249Z,96356.56
2022-09-12T07:30:53.898Z,96360.16
2022-09-12T07:33:21.728Z,96354.22
2022-09-12T07:35:49.556Z,96357.13
2022-09-12T07:38:17.116Z,96352.69
2022-09-12T07:40:44.606Z,96351.31
2022-09-12T07:43:13.469Z,96355.13
2022-09-12T07:45:42.282Z,96358.03
2022-09-12T07:48:10.414Z,96359.81
2022-09-12T07:50:40.035Z,96361.38
2022-09-12T07:53:11.550Z,96360.75
2022-09-12T07:55:38.992Z,96361.72
2022-09-12T07:58:06.476Z,96356.16
2022-09-12T08:00:36.369Z,96361.16
2022-09-12T08:03:04.415Z,96365.34
2022-09-12T08:05:31.861Z,96373.19
2022-09-12T08:07:59.307Z,96364.84
2022-09-12T08:10:26.742Z,96371.88
2022-09-12T08:12:54.226Z,96367.94
2022-09-12T08:15:21.895Z,96371.03
2022-09-12T08:17:50.826Z,96370.63
2022-09-12T08:20:18.536Z,96375.50
2022-09-12T08:22:46.015Z,96373.88
2022-09-12T08:25:13.530Z,96376.59
2022-09-12T08:27:41.220Z,96379.88
2022-09-12T08:30:09.790Z,96379.38
2022-09-12T08:32:37.243Z,96374.44
2022-09-12T08:35:07.990Z,96378.00
2022-09-12T08:37:35.443Z,96374.03
2022-09-12T08:40:06.576Z,96372.50
2022-09-12T08:42:48.924Z,96377.03
2022-09-12T08:45:23.751Z,96372.69
2022-09-12T08:47:52.008Z,96372.66
2022-09-12T08:50:23.287Z,96361.44
2022-09-12T08:52:58.391Z,96362.91
2022-09-12T08:55:31.346Z,96364.47
2022-09-12T08:58:00.455Z,96359.41
2022-09-12T09:00:38.031Z,96362.63
2022-09-12T09:03:24.991Z,96360.91
2022-09-12T09:06:02.334Z,96366.66
2022-09-12T09:08:45.954Z,96366.31
2022-09-12T09:11:30.479Z,96368.75
2022-09-12T09:14:27.352Z,96371.66
2022-09-12T09:16:57.191Z,96377.97
2022-09-12T09:19:27.959Z,96379.00
2022-09-12T09:22:01.657Z,96369.56
2022-09-12T09:24:35.789Z,96374.69
2022-09-12T09:27:23.613Z,96368.00
2022-09-12T09:29:56.884Z,96364.84
2022-09-12T09:32:28.051Z,96362.88
2022-09-12T09:34:55.582Z,96362.34
2022-09-12T09:37:34.908Z,96376.16
2022-09-12T09:40:12.000Z,96371.19
2022-09-12T09:42:46.897Z,96365.31
2022-09-12T09:45:16.820Z,96365.31
2022-09-12T09:47:46.788Z,96361.81
2022-09-12T09:50:17.474Z,96358.50
2022-09-12T09:52:48.256Z,96361.31
2022-09-12T09:55:21.004Z,96360.31
2022-09-12T09:57:49.890Z,96360.09
2022-09-12T10:00:27.011Z,96357.78
2022-09-12T10:03:04.556Z,96352.81
2022-09-12T10:05:35.552Z,96352.56
2022-09-12T10:08:08.081Z,96351.72
2022-09-12T10:10:35.547Z,96348.66
2022-09-12T10:13:25.991Z,96347.31
2022-09-12T10:16:02.416Z,96339.03
2022-09-12T10:18:35.816Z,96324.78
2022-09-12T10:21:13.299Z,96334.47
2022-09-12T10:23:43.498Z,96334.75
2022-09-12T10:26:13.775Z,96341.66
2022-09-12T10:28:43.619Z,96331.56
2022-09-12T10:31:15.652Z,96344.88
2022-09-12T10:33:47.261Z,96341.44
2022-09-12T10:36:16.532Z,96335.31
2022-09-12T10:38:51.951Z,96338.22
2022-09-12T10:41:20.480Z,96331.41
2022-09-12T10:43:48.353Z,96332.81
2022-09-12T10:46:25.060Z,96331.53
2022-09-12T10:49:13.008Z,96332.16
2022-09-12T10:51:40.454Z,96325.44
2022-09-12T10:54:12.678Z,96314.41
2022-09-12T10:56:47.738Z,96313.75
2022-09-12T10:59:29.466Z,96316.34
2022-09-12T11:02:01.406Z,96313.19
2022-09-12T11:04:41.842Z,96316.78
2022-09-12T11:07:29.751Z,96319.13
2022-09-12T11:10:03.800Z,96311.84
2022-09-12T11:12:41.143Z,96311.59
2022-09-12T11:15:39.588Z,96307.22
2022-09-12T11:18:15.394Z,96297.94
2022-09-12T11:20:55.798Z,96293.81
2022-09-12T11:23:46.505Z,96293.84
2022-09-12T11:26:27.658Z,96297.88
2022-09-12T11:29:08.134Z,96288.09
2022-09-12T11:31:53.642Z,96301.06
2022-09-12T11:34:34.611Z,96293.38
2022-09-12T11:37:21.233Z,96293.13
2022-09-12T11:39:55.397Z,96295.53
2022-09-12T11:42:29.408Z,96280.84
2022-09-12T11:45:04.093Z,96288.78
2022-09-12T11:47:34.822Z,96289.28
2022-09-12T11:50:14.993Z,96288.69
2022-09-12T11:52:42.507Z,96294.78
2022-09-12T11:55:18.050Z,96295.94
2022-09-12T11:57:53.469Z,96287.69
2022-09-12T12:00:22.790Z,96284.94
2022-09-12T12:03:01.122Z,96282.91
2022-09-12T12:05:35.154Z,96282.28
2022-09-12T12:08:05.839Z,96287.09
2022-09-12T12:10:37.709Z,96275.56
2022-09-12T12:13:14.252Z,96275.59
2022-09-12T12:15:47.675Z,96276.09
2022-09-12T12:18:19.241Z,96268.72
2022-09-12T12:20:47.240Z,96271.81
2022-09-12T12:23:26.803Z,96269.97
2022-09-12T12:25:56.464Z,96277.00
2022-09-12T12:29:00.025Z,96270.13
2022-09-12T12:31:27.714Z,96275.94
2022-09-12T12:34:26.247Z,96269.59
2022-09-12T12:36:55.256Z,96268.88
2022-09-12T12:40:00.846Z,96270.41
2022-09-12T12:43:22.312Z,96269.25
2022-09-12T12:46:12.838Z,96268.28
2022-09-12T12:49:01.483Z,96257.75
2022-09-12T12:51:33.924Z,96250.25
2022-09-12T12:54:04.807Z,96258.31
2022-09-12T12:56:40.119Z,96252.19
2022-09-12T12:59:18.193Z,96249.69
2022-09-12T13:01:52.819Z,96234.81
2022-09-12T13:04:24.488Z,96234.06
2022-09-12T13:07:02.574Z,96240.09
2022-09-12T13:09:35.836Z,96231.38
2022-09-12T13:12:06.044Z,96238.63
2022-09-12T13:14:49.226Z,96227.94
2022-09-12T13:17:22.883Z,96225.91
2022-09-12T13:20:10.627Z,96224.03
2022-09-12T13:22:42.556Z,96220.63
2022-09-12T13:25:23.866Z,96215.94
2022-09-12T13:28:18.376Z,96206.91
2022-09-12T13:30:48.632Z,96203.84
2022-09-12T13:33:21.726Z,96199.91
2022-09-12T13:36:09.769Z,96200.84
2022-09-12T13:38:47.931Z,96196.25
2022-09-12T13:41:33.892Z,96195.91
2022-09-12T13:44:02.533Z,96198.72
2022-09-12T13:46:33.913Z,96195.94
2022-09-12T13:49:18.593Z,96195.03
2022-09-12T13:51:46.192Z,96186.06
2022-09-12T13:54:23.871Z,96188.25
2022-09-12T13:56:53.310Z,96195.31
2022-09-12T13:59:20.737Z,96193.34
2022-09-12T14:01:48.803Z,96188.44
2022-09-12T14:04:36.353Z,96186.63
2022-09-12T14:07:12.911Z,96178.22
2022-09-12T14:09:42.642Z,96175.16
2022-09-12T14:12:25.071Z,96172.91
2022-09-12T14:14:54.075Z,96178.41
2022-09-12T14:17:27.417Z,96181.50
2022-09-12T14:19:55.390Z,96184.44
2022-09-12T14:22:23.484Z,96177.66
2022-09-12T14:24:51.779Z,96179.66
2022-09-12T14:27:26.687Z,96175.63
2022-09-12T14:29:59.012Z,96171.44
2022-09-12T14:32:26.456Z,96169.31
2022-09-12T14:35:14.938Z,96166.00
2022-09-12T14:37:51.168Z,96164.28
2022-09-12T14:40:21.511Z,96160.31
2022-09-12T14:42:52.614Z,96166.75
2022-09-12T14:45:32.345Z,96162.06
2022-09-12T14:48:00.382Z,96165.66
2022-09-12T14:50:31.179Z,96167.41
2022-09-12T14:53:06.406Z,96153.38
2022-09-12T14:55:35.220Z,96151.00
2022-09-12T14:58:17.100Z,96163.22
2022-09-12T15:00:55.935Z,96158.13
2022-09-12T15:03:28.167Z,96159.25
2022-09-12T15:05:56.191Z,96159.63
2022-09-12T15:08:23.980Z,96159.25
2022-09-12T15:10:51.580Z,96152.88
2022-09-12T15:13:22.949Z,96157.44
2022-09-12T15:15:52.684Z,96157.44
2022-09-12T15:18:21.397Z,96150.38
2022-09-12T15:20:51.266Z,96156.97
2022-09-12T15:23:22.060Z,96148.88
2022-09-12T15:25:50.114Z,96150.91
2022-09-12T15:28:22.471Z,96155.56
2022-09-12T15:30:51.394Z,96148.94
2022-09-12T15:33:20.851Z,96148.00
2022-09-12T15:35:48.365Z,96153.03
2022-09-12T15:38:15.842Z,96149.44
2022-09-12T15:40:43.335Z,96147.47
2022-09-12T15:43:12.995Z,96142.88
2022-09-12T15:45:51.347Z,96137.66
2022-09-12T15:48:19.198Z,96140.00
2022-09-12T15:50:46.710Z,96136.91
2022-09-12T15:53:16.079Z,96134.28
2022-09-12T15:55:43.932Z,96134.00
2022-09-12T15:58:11.729Z,96127.69
2022-09-12T16:00:39.263Z,96127.78
2022-09-12T16:03:13.650Z,96124.97
2022-09-12T16:05:45.518Z,96121.03
2022-09-12T16:08:12.989Z,96115.88
2022-09-12T16:10:40.465Z,96122.59
2022-09-12T16:13:07.910Z,96119.75
2022-09-12T16:15:35.715Z,96118.53
2022-09-12T16:18:03.195Z,96124.00
2022-09-12T16:20:31.996Z,96123.75
2022-09-12T16:22:59.482Z,96126.13
2022-09-12T16:25:26.932Z,96120.09
2022-09-12T16:27:54.447Z,96117.63
2022-09-12T16:30:22.051Z,96115.69
2022-09-12T16:32:49.542Z,96120.00
2022-09-12T16:35:17.114Z,96116.59
2022-09-12T16:37:45.903Z,96112.13
2022-09-12T16:40:15.237Z,96116.56
2022-09-12T16:42:43.891Z,96114.03
2022-09-12T16:45:12.539Z,96103.56
2022-09-12T16:47:40.098Z,96103.53
2022-09-12T16:50:08.834Z,96088.78
2022-09-12T16:52:36.479Z,96101.06
2022-09-12T16:55:06.218Z,96097.91
2022-09-12T16:57:33.930Z,96110.78
2022-09-12T17:00:01.402Z,96097.53
2022-09-12T17:02:28.889Z,96099.59
2022-09-12T17:04:56.699Z,96092.41
2022-09-12T17:07:24.163Z,96091.19
2022-09-12T17:09:51.992Z,96094.84
2022-09-12T17:12:20.787Z,96093.34
2022-09-12T17:14:48.239Z,96097.09
2022-09-12T17:17:15.691Z,96094.75
2022-09-12T17:19:43.399Z,96108.41
2022-09-12T17:22:10.876Z,96096.09
2022-09-12T17:24:38.364Z,96089.38
2022-09-12T17:27:06.267Z,96088.41
2022-09-12T17:29:36.972Z,96095.31
2022-09-12T17:32:04.463Z,96086.75
2022-09-12T17:34:32.095Z,96095.28
2022-09-12T17:36:59.554Z,96092.22
2022-09-12T17:39:27.312Z,96097.47
2022-09-12T17:41:57.374Z,96097.44
2022-09-12T17:44:24.892Z,96096.50
2022-09-12T17:46:53.679Z,96088.75
2022-09-12T17:49:22.005Z,96096.13
2022-09-12T17:51:49.587Z,96096.09
2022-09-12T17:54:20.679Z,96099.75
2022-09-12T17:56:51.216Z,96095.03
2022-09-12T17:59:20.462Z,96102.84
2022-09-12T18:02:05.849Z,96106.59
2022-09-12T18:04:34.713Z,96109.41
2022-09-12T18:07:02.285Z,96111.44
2022-09-12T18:09:30.638Z,96114.41
2022-09-12T18:11:58.415Z,96109.44
2022-09-12T18:14:27.649Z,96109.09
2022-09-12T18:16:57.019Z,96106.28
2022-09-12T18:19:25.207Z,96108.47
2022-09-12T18:21:54.367Z,96101.91
2022-09-12T18:24:22.111Z,96092.81
2022-09-12T18:26:49.642Z,96097.41
2022-09-12T18:29:17.623Z,96094.56
2022-09-12T18:31:46.644Z,96092.94
2022-09-12T18:34:14.620Z,96098.31
2022-09-12T18:36:42.795Z,96093.78
2022-09-12T18:39:12.220Z,96099.78
2022-09-12T18:41:40.322Z,96104.56
2022-09-12T18:44:08.570Z,96104.19
2022-09-12T18:46:36.449Z,96107.28
2022-09-12T18:49:05.539Z,96112.44
2022-09-12T18:51:35.910Z,96111.22
2022-09-12T18:54:06.749Z,96118.44
2022-09-12T18:56:38.242Z,96113.06
2022-09-12T18:59:07.314Z,96106.28
2022-09-12T19:01:36.545Z,96113.50
2022-09-12T19:04:06.002Z,96111.63
2022-09-12T19:06:36.162Z,96113.69
2022-09-12T19:09:07.768Z,96117.38
2022-09-12T19:11:39.512Z,96114.28
2022-09-12T19:14:08.181Z,96112.56
2022-09-12T19:16:36.103Z,96110.75
2022-09-12T19:19:04.216Z,96112.84
2022-09-12T19:21:32.876Z,96116.94
2022-09-12T19:24:02.953Z,96109.13
2022-09-12T19:26:31.852Z,96110.94
2022-09-12T19:29:02.466Z,96102.06
2022-09-12T19:31:30.815Z,96102.88
2022-09-12T19:34:01.383Z,96101.63
2022-09-12T19:36:46.212Z,96098.69
2022-09-12T19:39:14.443Z,96100.72
2022-09-12T19:41:42.507Z,96101.50
2022-09-12T19:44:11.530Z,96097.00
2022-09-12T19:46:39.472Z,96099.66
2022-09-12T19:49:07.004Z,96099.47
2022-09-12T19:51:34.463Z,96098.22
2022-09-12T19:54:02.109Z,96095.28
2022-09-12T19:56:29.574Z,96093.41
2022-09-12T19:58:57.109Z,96092.16
2022-09-12T20:01:28.178Z,96098.13
2022-09-12T20:03:56.418Z,96097.50
2022-09-12T20:06:24.259Z,96090.72
2022-09-12T20:08:51.970Z,96100.50
2022-09-12T20:11:21.475Z,96097.66
2022-09-12T20:13:49.131Z,96093.72
2022-09-12T20:16:21.661Z,96098.44
2022-09-12T20:18:54.410Z,96092.56
2022-09-12T20:21:25.174Z,96095.50
2022-09-12T20:23:52.874Z,96094.28
2022-09-12T20:26:20.707Z,96093.44
2022-09-12T20:28:48.592Z,96092.56
2022-09-12T20:31:17.488Z,96089.13
2022-09-12T20:33:49.837Z,96081.25
2022-09-12T20:36:21.820Z,96072.75
2022-09-12T20:38:50.789Z,96076.84
2022-09-12T20:41:20.098Z,96075.38
2022-09-12T20:43:50.962Z,96069.38
2022-09-12T20:46:21.909Z,96072.16
2022-09-12T20:48:50.273Z,96071.53
2022-09-12T20:51:18.448Z,96077.91
2022-09-12T20:53:47.983Z,96083.88
2022-09-12T20:56:15.611Z,96084.53
2022-09-12T20:58:44.630Z,96079.97
2022-09-12T21:01:15.720Z,96075.75
2022-09-12T21:03:44.661Z,96071.84
2022-09-12T21:06:14.187Z,96075.16
2022-09-12T21:08:41.651Z,96070.38
2022-09-12T21:11:10.816Z,96068.72
2022-09-12T21:13:38.899Z,96078.78
2022-09-12T21:16:08.934Z,96079.41
2022-09-12T21:18:37.311Z,96081.47
2022-09-12T21:21:05.851Z,96073.38
2022-09-12T21:23:34.428Z,96082.19
2022-09-12T21:26:02.848Z,96065.47
2022-09-12T21:28:32.506Z,96064.88
2022-09-12T21:31:00.142Z,96069.41
2022-09-12T21:33:28.105Z,96066.53
2022-09-12T21:35:57.908Z,96069.91
2022-09-12T21:38:25.437Z,96073.00
2022-09-12T21:40:52.970Z,96073.00
2022-09-12T21:43:20.426Z,96083.06
2022-09-12T21:45:49.878Z,96075.81
2022-09-12T21:48:17.340Z,96083.13
2022-09-12T21:50:50.635Z,96086.00
2022-09-12T21:53:18.278Z,96081.41
2022-09-12T21:55:45.766Z,96078.56
2022-09-12T21:58:13.276Z,96079.38
2022-09-12T22:00:42.096Z,96076.09
2022-09-12T22:03:11.529Z,96077.69
2022-09-12T22:05:40.100Z,96079.13
2022-09-12T22:08:08.450Z,96072.00
2022-09-12T22:10:36.432Z,96072.28
2022-09-12T22:13:04.066Z,96069.97
2022-09-12T22:15:46.946Z,96058.66
2022-09-12T22:18:15.859Z,96061.69
2022-09-12T22:20:43.303Z,96067.03
2022-09-12T22:23:26.562Z,96066.88
2022-09-12T22:25:56.160Z,96059.00
2022-09-12T22:28:25.027Z,96059.16
2022-09-12T22:30:54.259Z,96068.25
2022-09-12T22:33:23.301Z,96068.34
2022-09-12T22:35:50.838Z,96057.25
2022-09-12T22:38:18.334Z,96056.69
2022-09-12T22:40:45.833Z,96058.78
2022-09-12T22:43:13.443Z,96048.94
2022-09-12T22:45:41.872Z,96044.19
2022-09-12T22:48:09.527Z,96047.41
2022-09-12T22:50:38.409Z,96053.31
2022-09-12T22:53:05.901Z,96043.41
2022-09-12T22:55:33.338Z,96039.03
2022-09-12T22:58:00.932Z,96024.09
2022-09-12T23:00:29.940Z,96034.69
2022-09-12T23:02:58.308Z,96032.50
2022-09-12T23:05:25.917Z,96028.44
2022-09-12T23:07:55.528Z,96026.72
2022-09-12T23:10:23.303Z,96020.63
2022-09-12T23:12:50.771Z,96024.84
2022-09-12T23:15:18.265Z,96014.66
2022-09-12T23:17:45.769Z,96007.22
2022-09-12T23:20:13.238Z,96012.38
2022-09-12T23:22:40.714Z,95993.44
2022-09-12T23:25:10.162Z,96000.59
2022-09-12T23:27:37.647Z,95994.94
2022-09-12T23:30:05.882Z,96006.19
2022-09-12T23:32:33.491Z,96011.94
2022-09-12T23:35:00.965Z,96003.34
2022-09-12T23:37:28.422Z,96002.31
2022-09-12T23:39:55.962Z,95989.06
2022-09-12T23:42:24.866Z,95988.09
2022-09-12T23:44:52.348Z,95982.38
2022-09-12T23:47:19.817Z,95989.81
2022-09-12T23:49:47.294Z,95988.47
2022-09-12T23:52:14.743Z,95992.91
2022-09-12T23:54:42.196Z,95991.66
2022-09-12T23:57:09.702Z,95990.75
2022-09-12T23:59:38.518Z,95976.41
